createdAt,value
2023-04-12T00:02:38.380Z,35.00
2023-04-12T00:05:05.272Z,34.00
2023-04-12T00:12:26.177Z,33.60
2023-04-12T00:17:19.910Z,32.80
2023-04-12T00:27:08.666Z,30.70
2023-04-12T00:29:35.379Z,30.60
2023-04-12T00:32:03.741Z,31.50
2023-04-12T00:36:57.441Z,32.00
2023-04-12T00:41:51.097Z,30.40
2023-04-12T00:59:01.900Z,27.10
2023-04-12T01:06:36.356Z,27.00
2023-04-12T01:16:44.322Z,27.40
2023-04-12T01:19:23.148Z,27.50
2023-04-12T01:22:08.282Z,27.50
2023-04-12T01:24:43.572Z,27.50
2023-04-12T01:27:13.662Z,29.60
2023-04-12T01:29:41.202Z,29.80
2023-04-12T01:32:09.184Z,30.20
2023-04-12T01:56:43.220Z,26.30
2023-04-12T02:06:31.834Z,27.30
2023-04-12T02:23:43.949Z,29.90
2023-04-12T02:28:38.718Z,30.70
2023-04-12T02:31:06.679Z,31.00
2023-04-12T02:33:33.393Z,33.30
2023-04-12T02:38:29.341Z,32.70
2023-04-12T02:40:56.352Z,34.40
2023-04-12T02:43:22.925Z,33.60
2023-04-12T02:45:50.009Z,32.70
2023-04-12T02:48:16.693Z,33.60
2023-04-12T02:50:43.345Z,33.40
2023-04-12T02:53:09.937Z,33.80
2023-04-12T02:55:37.973Z,33.40
2023-04-12T02:58:04.589Z,33.20
2023-04-12T03:02:59.432Z,35.40
2023-04-12T03:05:27.508Z,36.90
2023-04-12T03:10:21.312Z,33.30
2023-04-12T03:20:10.066Z,31.70
2023-04-12T03:25:04.575Z,30.90
2023-04-12T03:27:31.123Z,32.10
2023-04-12T03:29:57.626Z,31.60
2023-04-12T03:32:24.416Z,32.90
2023-04-12T03:34:51.018Z,32.90
2023-04-12T03:37:17.779Z,33.60
2023-04-12T03:39:47.891Z,34.00
2023-04-12T03:42:29.329Z,34.50
2023-04-12T03:44:58.664Z,34.60
2023-04-12T03:47:25.444Z,35.20
2023-04-12T03:50:10.385Z,36.90
2023-04-12T03:52:38.551Z,36.90
2023-04-12T03:55:07.390Z,35.60
2023-04-12T03:57:34.638Z,37.00
2023-04-12T04:00:01.265Z,36.30
2023-04-12T04:02:27.951Z,36.30
2023-04-12T04:04:54.858Z,36.40
2023-04-12T04:07:21.923Z,36.40
2023-04-12T04:12:16.714Z,36.50
2023-04-12T04:14:43.358Z,36.50
2023-04-12T04:17:09.877Z,37.20
2023-04-12T04:19:36.463Z,38.10
2023-04-12T04:22:03.111Z,38.50
2023-04-12T04:24:29.901Z,39.20
2023-04-12T04:26:56.434Z,40.60
2023-04-12T04:29:23.646Z,40.90
2023-04-12T04:31:50.740Z,41.90
2023-04-12T04:34:19.303Z,43.50
2023-04-12T04:36:46.877Z,42.90
2023-04-12T04:39:13.523Z,43.00
2023-04-12T04:41:41.268Z,43.70
2023-04-12T04:44:11.364Z,44.10
2023-04-12T04:46:38.266Z,45.30
2023-04-12T04:49:05.710Z,47.60
2023-04-12T04:51:32.365Z,47.60
2023-04-12T04:54:00.864Z,47.60
2023-04-12T04:56:27.425Z,48.20
2023-04-12T04:58:56.347Z,50.00
2023-04-12T05:01:28.654Z,50.80
2023-04-12T05:03:55.819Z,51.60
2023-04-12T05:06:23.023Z,53.80
2023-04-12T05:08:49.665Z,55.20
2023-04-12T05:11:16.237Z,55.40
2023-04-12T05:13:43.096Z,56.40
2023-04-12T05:23:37.220Z,57.00
2023-04-12T05:26:04.162Z,58.50
2023-04-12T05:28:30.815Z,58.80
2023-04-12T05:30:57.392Z,58.50
2023-04-12T05:33:24.380Z,58.70
2023-04-12T05:35:51.040Z,58.80
2023-04-12T05:38:18.692Z,59.80
2023-04-12T05:40:45.300Z,61.10
2023-04-12T05:43:12.971Z,61.50
2023-04-12T05:45:40.405Z,63.10
2023-04-12T05:48:07.093Z,61.70
2023-04-12T05:50:33.718Z,60.30
2023-04-12T05:53:01.730Z,60.70
2023-04-12T05:55:28.694Z,60.00
2023-04-12T05:57:55.302Z,60.90
2023-04-12T06:00:21.865Z,61.20
2023-04-12T06:02:50.358Z,62.70
2023-04-12T06:05:17.775Z,65.00
2023-04-12T06:07:48.162Z,65.50
2023-04-12T06:10:19.062Z,64.10
2023-04-12T06:12:45.733Z,65.30
2023-04-12T06:15:12.284Z,65.90
2023-04-12T06:17:38.990Z,65.60
2023-04-12T06:20:08.390Z,69.50
2023-04-12T06:22:35.472Z,72.00
2023-04-12T06:25:02.176Z,75.00
2023-04-12T06:27:29.025Z,75.40
2023-04-12T06:29:55.775Z,77.20
2023-04-12T06:32:23.204Z,76.60
2023-04-12T06:34:49.856Z,76.50
2023-04-12T06:37:16.412Z,77.10
2023-04-12T06:39:43.007Z,77.10
2023-04-12T06:42:09.539Z,77.10
2023-04-12T06:44:36.076Z,78.50
2023-04-12T06:47:02.703Z,80.60
2023-04-12T06:49:29.481Z,81.30
2023-04-12T06:51:56.055Z,82.30
2023-04-12T06:54:24.009Z,80.60
2023-04-12T06:56:50.522Z,81.20
2023-04-12T06:59:17.607Z,79.00
2023-04-12T07:01:44.420Z,79.70
2023-04-12T07:04:11.481Z,78.30
2023-04-12T07:06:38.012Z,77.20
2023-04-12T07:09:04.772Z,75.10
2023-04-12T07:11:31.863Z,75.20
2023-04-12T07:14:01.191Z,73.20
2023-04-12T07:16:29.623Z,74.10
2023-04-12T07:18:56.565Z,74.80
2023-04-12T07:21:23.350Z,75.50
2023-04-12T07:23:51.289Z,76.70
2023-04-12T07:26:19.038Z,75.10
2023-04-12T07:28:45.917Z,74.20
2023-04-12T07:31:12.495Z,74.80
2023-04-12T07:33:41.424Z,75.10
2023-04-12T07:36:09.617Z,74.20
2023-04-12T07:38:36.157Z,74.10
2023-04-12T07:41:02.738Z,72.90
2023-04-12T07:43:29.257Z,73.80
2023-04-12T07:45:56.312Z,73.90
2023-04-12T07:48:23.063Z,72.30
2023-04-12T07:50:49.592Z,72.00
2023-04-12T07:53:23.295Z,73.90
2023-04-12T07:55:50.579Z,75.00
2023-04-12T07:58:17.671Z,72.40
2023-04-12T08:00:44.734Z,72.80
2023-04-12T08:03:11.859Z,73.70
2023-04-12T08:05:38.522Z,69.40
2023-04-12T08:08:06.092Z,69.40
2023-04-12T08:10:32.700Z,69.60
2023-04-12T08:15:26.370Z,67.10
2023-04-12T08:17:53.344Z,71.90
2023-04-12T08:20:19.875Z,68.20
2023-04-12T08:25:14.034Z,57.40
2023-04-12T08:27:43.758Z,57.70
2023-04-12T08:30:11.594Z,58.10
2023-04-12T08:32:38.208Z,56.80
2023-04-12T08:35:05.389Z,60.90
2023-04-12T08:37:32.052Z,52.10
2023-04-12T08:40:04.108Z,50.30
2023-04-12T08:42:31.821Z,50.00
2023-04-12T08:44:58.487Z,53.70
2023-04-12T08:47:25.062Z,56.70
2023-04-12T08:52:18.658Z,60.80
2023-04-12T08:54:45.250Z,59.90
2023-04-12T08:57:12.404Z,61.60
2023-04-12T08:59:42.215Z,58.50
2023-04-12T09:02:09.462Z,63.00
2023-04-12T09:04:47.017Z,59.80
2023-04-12T09:07:13.649Z,60.90
2023-04-12T09:09:50.006Z,60.90
2023-04-12T09:12:17.069Z,60.60
2023-04-12T09:14:44.801Z,65.00
2023-04-12T09:17:24.379Z,69.20
2023-04-12T09:19:51.401Z,70.90
2023-04-12T09:22:18.374Z,72.70
2023-04-12T09:24:53.113Z,72.90
2023-04-12T09:27:22.662Z,74.90
2023-04-12T09:29:51.772Z,74.50
2023-04-12T09:32:27.723Z,77.30
2023-04-12T09:34:57.796Z,77.50
2023-04-12T09:37:24.550Z,77.10
2023-04-12T09:39:58.917Z,74.90
2023-04-12T09:42:33.259Z,78.20
2023-04-12T09:45:02.673Z,78.20
2023-04-12T09:47:39.719Z,77.70
2023-04-12T09:50:07.899Z,78.20
2023-04-12T09:52:38.373Z,78.10
2023-04-12T09:55:09.359Z,78.20
2023-04-12T09:57:42.008Z,78.70
2023-04-12T10:00:14.208Z,82.20
2023-04-12T10:02:42.708Z,80.40
2023-04-12T10:05:13.232Z,79.50
2023-04-12T10:07:42.120Z,82.60
2023-04-12T10:10:12.598Z,84.10
2023-04-12T10:12:40.822Z,80.70
2023-04-12T10:15:12.842Z,82.00
2023-04-12T10:17:41.944Z,79.30
2023-04-12T10:20:09.982Z,79.20
2023-04-12T10:22:38.736Z,77.90
2023-04-12T10:25:05.811Z,74.70
2023-04-12T10:27:32.410Z,71.10
2023-04-12T10:30:18.695Z,76.70
2023-04-12T10:32:45.691Z,75.90
2023-04-12T11:18:35.147Z,64.80
2023-04-12T11:21:03.287Z,61.20
2023-04-12T11:23:31.436Z,56.30
2023-04-12T11:25:59.113Z,61.20
2023-04-12T11:28:31.172Z,70.20
2023-04-12T11:31:06.538Z,72.80
2023-04-12T11:33:37.923Z,72.20
2023-04-12T11:36:09.186Z,70.50
2023-04-12T11:38:36.865Z,72.30
2023-04-12T11:41:04.777Z,72.40
2023-04-12T11:43:31.617Z,73.30
2023-04-12T11:45:59.119Z,71.60
2023-04-12T11:48:26.451Z,75.40
2023-04-12T11:51:03.988Z,73.40
2023-04-12T11:53:37.265Z,73.60
2023-04-12T11:56:03.936Z,75.00
2023-04-12T11:58:30.768Z,74.70
2023-04-12T12:00:58.470Z,75.70
2023-04-12T12:03:25.532Z,76.00
2023-04-12T12:05:52.472Z,75.50
2023-04-12T12:08:19.813Z,75.50
2023-04-12T12:13:18.849Z,73.70
2023-04-12T12:15:46.365Z,70.50
2023-04-12T12:18:13.042Z,76.90
2023-04-12T12:20:49.745Z,72.20
2023-04-12T12:23:29.749Z,72.10
2023-04-12T12:26:10.516Z,73.90
2023-04-12T12:28:44.755Z,77.10
2023-04-12T12:31:12.441Z,75.90
2023-04-12T12:33:46.776Z,74.10
2023-04-12T12:36:17.029Z,77.40
2023-04-12T12:38:43.819Z,61.30
2023-04-12T12:41:17.189Z,51.80
2023-04-12T12:43:47.136Z,52.40
2023-04-12T12:46:14.148Z,54.00
2023-04-12T12:48:42.003Z,61.90
2023-04-12T12:51:09.754Z,63.20
2023-04-12T12:53:36.696Z,67.60
2023-04-12T12:56:03.315Z,69.10
2023-04-12T12:58:30.222Z,71.30
2023-04-12T13:00:56.991Z,71.10
2023-04-12T13:03:24.161Z,68.40
2023-04-12T13:05:51.365Z,66.90
2023-04-12T13:08:18.477Z,65.20
2023-04-12T13:10:45.298Z,71.10
2023-04-12T13:13:12.184Z,72.70
2023-04-12T13:15:38.784Z,71.90
2023-04-12T13:18:05.980Z,69.10
2023-04-12T13:20:32.647Z,72.00
2023-04-12T13:22:59.379Z,69.20
2023-04-12T13:25:26.413Z,71.00
2023-04-12T13:27:53.003Z,66.90
2023-04-12T13:30:19.934Z,63.80
2023-04-12T13:32:46.884Z,65.50
2023-04-12T13:35:13.651Z,66.30
2023-04-12T13:37:40.303Z,67.80
2023-04-12T13:40:07.930Z,69.00
2023-04-12T13:42:34.487Z,69.90
2023-04-12T13:45:01.492Z,63.50
2023-04-12T13:47:29.014Z,55.50
2023-04-12T13:49:55.587Z,45.90
2023-04-12T13:52:22.345Z,45.80
2023-04-12T13:54:49.005Z,43.90
2023-04-12T13:57:15.563Z,47.80
2023-04-12T13:59:42.345Z,49.90
2023-04-12T14:02:09.235Z,53.50
2023-04-12T14:04:35.947Z,59.50
2023-04-12T14:07:02.749Z,53.60
2023-04-12T14:09:30.239Z,53.70
2023-04-12T14:11:58.127Z,56.40
2023-04-12T14:14:25.562Z,57.80
2023-04-12T14:16:53.581Z,54.00
2023-04-12T14:19:20.486Z,54.00
2023-04-12T14:21:47.527Z,50.00
2023-04-12T14:24:14.381Z,49.60
2023-04-12T14:26:41.615Z,52.10
2023-04-12T14:29:08.293Z,50.60
2023-04-12T14:31:36.256Z,52.20
2023-04-12T14:34:03.416Z,53.90
2023-04-12T14:36:31.018Z,54.00
2023-04-12T14:38:57.979Z,52.50
2023-04-12T14:41:24.913Z,51.00
2023-04-12T14:43:51.484Z,46.60
2023-04-12T14:46:18.097Z,43.30
2023-04-12T14:48:44.904Z,44.90
2023-04-12T14:51:11.492Z,43.70
2023-04-12T14:53:38.073Z,38.20
2023-04-12T14:56:05.022Z,40.50
2023-04-12T14:58:33.302Z,38.50
2023-04-12T15:01:00.904Z,27.90
2023-04-12T15:03:29.954Z,24.40
2023-04-12T15:05:59.038Z,22.30
2023-04-12T15:08:25.598Z,17.00
2023-04-12T15:10:52.169Z,15.20
2023-04-12T15:13:19.653Z,14.90
2023-04-12T15:15:47.687Z,18.90
2023-04-12T15:18:15.427Z,17.80
2023-04-12T15:20:42.456Z,18.90
2023-04-12T15:23:09.043Z,19.40
2023-04-12T15:25:35.624Z,19.50
2023-04-12T15:28:02.933Z,19.40
2023-04-12T15:30:30.676Z,19.50
2023-04-12T15:32:58.349Z,21.20
2023-04-12T15:35:26.925Z,20.20
2023-04-12T15:37:55.083Z,18.70
2023-04-12T15:40:22.717Z,17.20
2023-04-12T15:42:49.604Z,15.40
2023-04-12T15:45:16.317Z,12.10
2023-04-12T15:47:42.961Z,12.40
2023-04-12T15:50:10.173Z,13.50
2023-04-12T15:52:36.773Z,14.90
2023-04-12T15:55:05.133Z,15.80
2023-04-12T15:57:32.366Z,14.80
2023-04-12T15:59:59.730Z,14.40
2023-04-12T16:02:26.737Z,17.70
2023-04-12T16:04:55.882Z,19.20
2023-04-12T16:07:22.744Z,22.80
2023-04-12T16:09:50.109Z,23.90
2023-04-12T16:12:16.642Z,22.10
2023-04-12T16:14:44.137Z,22.40
2023-04-12T16:17:10.753Z,23.70
2023-04-12T16:19:37.561Z,23.60
2023-04-12T16:22:04.193Z,26.60
2023-04-12T16:24:30.739Z,27.20
2023-04-12T16:26:57.487Z,28.80
2023-04-12T16:29:24.476Z,28.80
2023-04-12T16:31:52.207Z,28.90
2023-04-12T16:34:21.850Z,29.70
2023-04-12T16:36:49.148Z,32.30
2023-04-12T16:39:16.526Z,32.70
2023-04-12T16:41:43.768Z,36.50
2023-04-12T16:44:10.724Z,40.10
2023-04-12T16:46:37.697Z,46.30
2023-04-12T16:49:04.750Z,54.30
2023-04-12T16:51:36.920Z,59.50
2023-04-12T16:54:04.191Z,68.10
2023-04-12T16:56:31.018Z,70.00
2023-04-12T16:58:59.196Z,72.60
2023-04-12T17:01:25.769Z,78.10
2023-04-12T17:03:52.540Z,78.00
2023-04-12T17:06:19.585Z,74.80
2023-04-12T17:08:46.648Z,60.90
2023-04-12T17:11:13.549Z,54.60
2023-04-12T17:13:40.118Z,61.80
2023-04-12T17:16:06.971Z,67.20
2023-04-12T17:18:34.630Z,71.40
2023-04-12T17:21:01.310Z,74.60
2023-04-12T17:23:28.355Z,82.70
2023-04-12T17:25:56.544Z,84.80
2023-04-12T17:28:23.085Z,87.70
2023-04-12T17:30:50.050Z,88.40
2023-04-12T17:33:18.223Z,87.90
2023-04-12T17:35:45.248Z,87.80
2023-04-12T17:38:12.011Z,87.70
2023-04-12T17:40:38.596Z,87.80
2023-04-12T17:43:05.288Z,89.00
2023-04-12T17:45:33.529Z,89.30
2023-04-12T17:48:00.178Z,87.70
2023-04-12T17:50:26.815Z,87.90
2023-04-12T17:52:55.308Z,87.70
2023-04-12T17:55:25.924Z,87.70
2023-04-12T18:00:20.228Z,87.00
2023-04-12T19:19:00.455Z,77.90
2023-04-12T19:21:29.990Z,76.80
2023-04-12T19:28:55.262Z,80.60
2023-04-12T19:31:21.976Z,80.30
2023-04-12T19:36:15.650Z,83.80
2023-04-12T19:38:44.091Z,80.90
2023-04-12T19:41:10.876Z,83.30
2023-04-12T19:43:37.670Z,84.80
2023-04-12T19:46:07.700Z,85.70
2023-04-12T19:48:34.953Z,83.60
2023-04-12T19:51:01.634Z,83.50
2023-04-12T19:53:28.335Z,81.30
2023-04-12T19:55:56.989Z,82.10
2023-04-12T19:58:24.209Z,81.60
2023-04-12T20:00:54.960Z,82.00
2023-04-12T20:03:22.637Z,84.40
2023-04-12T20:05:50.491Z,87.80
2023-04-12T20:08:17.110Z,88.30
2023-04-12T20:10:43.774Z,89.20
2023-04-12T20:13:15.074Z,89.90
2023-04-12T20:18:11.247Z,91.00
2023-04-12T20:20:38.141Z,91.10
2023-04-12T20:23:04.817Z,90.90
2023-04-12T20:25:37.587Z,91.10
2023-04-12T20:28:04.488Z,91.50
2023-04-12T20:30:31.102Z,91.50
2023-04-12T20:37:52.882Z,92.10
2023-04-12T20:40:20.489Z,92.40
2023-04-12T20:42:47.134Z,92.30
2023-04-12T20:45:14.374Z,92.60
2023-04-12T20:47:41.548Z,92.50
2023-04-12T20:50:08.373Z,92.90
2023-04-12T20:52:38.151Z,92.60
2023-04-12T20:55:05.489Z,92.90
2023-04-12T20:59:59.532Z,92.40
2023-04-12T21:02:26.270Z,93.10
2023-04-12T21:04:53.048Z,93.60
2023-04-12T21:07:20.209Z,93.90
2023-04-12T21:09:47.048Z,94.20
2023-04-12T21:12:13.645Z,94.50
2023-04-12T21:14:40.342Z,94.20
2023-04-12T21:17:07.863Z,94.80
2023-04-12T21:19:38.935Z,94.70
2023-04-12T21:22:06.945Z,95.40
2023-04-12T21:24:38.140Z,95.40
2023-04-12T21:27:06.668Z,95.30
2023-04-12T21:29:34.454Z,95.20
2023-04-12T21:32:02.094Z,95.40
2023-04-12T21:34:29.670Z,95.40
2023-04-12T21:36:57.315Z,95.40
2023-04-12T21:39:23.946Z,95.30
2023-04-12T21:41:50.472Z,95.30
2023-04-12T21:44:17.967Z,95.30
2023-04-12T21:46:44.546Z,95.40
2023-04-12T21:49:11.222Z,95.40
2023-04-12T21:51:37.820Z,95.40
2023-04-12T21:54:04.366Z,95.30
2023-04-12T21:56:31.348Z,95.70
2023-04-12T21:58:59.928Z,95.70
2023-04-12T22:01:27.291Z,95.60
2023-04-12T22:03:54.109Z,96.10
2023-04-12T22:06:21.402Z,95.70
2023-04-12T22:08:48.259Z,95.30
2023-04-12T22:11:14.906Z,95.30
2023-04-12T22:13:41.671Z,95.50
2023-04-12T22:16:16.853Z,95.30
2023-04-12T22:18:46.197Z,95.00
2023-04-12T22:21:12.896Z,93.90
2023-04-12T22:23:40.379Z,93.90
2023-04-12T22:26:10.726Z,93.90
2023-04-12T22:28:38.134Z,93.50
2023-04-12T22:31:05.568Z,93.50
2023-04-12T22:33:32.330Z,93.10
2023-04-12T22:35:58.893Z,93.40
2023-04-12T22:38:25.875Z,92.40
2023-04-12T22:40:54.882Z,91.80
2023-04-12T22:43:22.316Z,91.80
2023-04-12T22:45:48.889Z,91.10
2023-04-12T22:48:15.508Z,92.10
2023-04-12T22:50:42.146Z,91.40
2023-04-12T22:53:08.892Z,91.20
2023-04-12T22:55:36.661Z,90.40
2023-04-12T23:00:35.069Z,87.30
2023-04-12T23:03:06.556Z,88.60
2023-04-12T23:05:33.725Z,89.20
2023-04-12T23:08:00.613Z,89.60
2023-04-12T23:10:28.076Z,89.60
2023-04-12T23:12:55.304Z,87.40
2023-04-12T23:15:21.941Z,86.10
2023-04-12T23:17:49.862Z,85.60
2023-04-12T23:20:17.020Z,86.00
2023-04-12T23:22:57.520Z,82.40
2023-04-12T23:25:37.620Z,81.50
2023-04-12T23:28:14.967Z,77.30
2023-04-12T23:30:42.722Z,77.40
2023-04-12T23:33:11.802Z,77.30
2023-04-12T23:35:39.173Z,77.30
2023-04-12T23:38:05.955Z,77.30
2023-04-12T23:40:33.371Z,76.10
2023-04-12T23:43:00.129Z,74.30
2023-04-12T23:45:27.278Z,73.10
2023-04-12T23:47:54.085Z,72.20
2023-04-12T23:50:20.903Z,72.30
2023-04-12T23:52:47.545Z,71.10
2023-04-12T23:55:14.376Z,68.70
2023-04-12T23:57:42.152Z,68.70
